Terminal Aerodrome Forecast
Issued by NWS Charleston, WV

Home | Current Version | Previous Version | Text Only | Print | Product List | Glossary On
Versions: 1 2 3 4 5 6 7 8 9 10 11 12 13 14 15 16 17 18 19 20 21 22 23
000
FTUS41 KRLX 311700
TAFBKW
TAF
KBKW 311740Z 3118/0118 22006KT P6SM SCT050
     FM312300 VRB03KT P6SM BKN050
     FM010800 VRB03KT P6SM BKN025
     FM011000 15004KT P6SM BKN015
     FM011200 14006KT 6SM SHRA BR VCTS BKN015CB
     FM011500 13008KT 5SM SHRA BR VCTS OVC025CB=

USA.gov is the U.S. government's official web portal to all federal, state and local government web resources and services.